Shen Hang 935 — BXGY — position and weather

sailwx.info

Track history (hours):
 
Tides and Currents Weather Stations Pressure Air Temp Water Temp Dewpoint Dewpoint Depression Visibility Wind Speed Wind Dir Waves Ship Positions

Shen Hang 935

Last reported at 2014-Sep-30 09:16 UTC. Time now 2014-Sep-30 20:04 UTC.
Position N 22°18' E 114°12'.

Length 49 m; draft 2.6 m.

Type: Ship. MMSI: 412466550.

Date/timePositionNaut miles runAvg speedWind from/ knotsBaromVisibWave heightAir tempDewpointWater temp
2014-Sep-30 09:16N 22°18' E 114°12'16 2.7
2014-Sep-30 03:15N 22°34' E 114°15'0 0.0
2014-Sep-30 02:28N 22°34' E 114°15'0 0.0
2014-Sep-30 01:33N 22°34' E 114°15'0 0.0
2014-Sep-30 00:33N 22°34' E 114°15'0 0.0
2014-Sep-29 23:33N 22°34' E 114°15'0 0.0
2014-Sep-29 22:33N 22°34' E 114°15'0 0.1
2014-Sep-29 21:32N 22°34' E 114°15'0 0.0
2014-Sep-29 20:33N 22°34' E 114°15'0 0.0
2014-Sep-29 19:33N 22°34' E 114°15'0 0.0
2014-Sep-29 18:33N 22°34' E 114°15'0 0.0
2014-Sep-29 17:33N 22°34' E 114°15'0 0.0
2014-Sep-29 16:28N 22°34' E 114°15'0 0.0
2014-Sep-29 15:30N 22°34' E 114°15'0 0.1
2014-Sep-29 14:33N 22°34' E 114°15'0 0.0
2014-Sep-29 13:33N 22°34' E 114°15'17 0.4
2014-Sep-27 22:06N 22°18' E 114°08'0 0.0
2014-Sep-27 21:20N 22°18' E 114°08'2 1.9
2014-Sep-27 20:22N 22°18' E 114°10'3 0.2
2014-Sep-27 01:09N 22°18' E 114°13'4 5.3
2014-Sep-27 00:26N 22°18' E 114°09'3 0.2
2014-Sep-26 08:21N 22°18' E 114°12'1 0.0
2014-Sep-25 14:31N 22°18' E 114°13'57 6.2
2014-Sep-25 05:18N 22°60' E 113°31'4 5.4
2014-Sep-25 04:33N 23°03' E 113°30'3 3.3
2014-Sep-25 03:33N 23°06' E 113°27'0 0.0
2014-Sep-25 02:33N 23°06' E 113°27'0 0.0
2014-Sep-25 01:33N 23°06' E 113°27'0 0.0
2014-Sep-25 00:32N 23°06' E 113°27'0 0.0
2014-Sep-24 23:33N 23°06' E 113°27'0 0.1
2014-Sep-24 22:33N 23°05' E 113°27'0 0.2
2014-Sep-24 21:33N 23°06' E 113°27'0 0.0
2014-Sep-24 20:33N 23°06' E 113°27'0 0.0
2014-Sep-24 19:33N 23°06' E 113°27'0 0.0
2014-Sep-24 18:33N 23°06' E 113°27'0 0.0
2014-Sep-24 17:33N 23°06' E 113°27'0 0.0
2014-Sep-24 16:33N 23°06' E 113°27'0 0.0
2014-Sep-24 15:33N 23°06' E 113°27'6 5.4
2014-Sep-24 14:29N 23°01' E 113°31'58 1.2
2014-Sep-22 15:34N 22°18' E 114°13'5 0.1
2014-Sep-21 03:03N 22°19' E 114°08'2 2.4
2014-Sep-21 02:12N 22°18' E 114°09'4 5.9
2014-Sep-21 01:33N 22°17' E 114°14'  
Track history (hours):
 
Tides and Currents Weather Stations Pressure Air Temp Water Temp Dewpoint Dewpoint Depression Visibility Wind Speed Wind Dir Waves Ship Positions

Shen Hang 935

Last reported at 2014-Sep-30 09:16 UTC. Time now 2014-Sep-30 20:04 UTC.
Position N 22°18' E 114°12'.

Length 49 m; draft 2.6 m.

Type: Ship. MMSI: 412466550.

Date/timePositionNaut miles runAvg speedWind from/ knotsBaromVisibWave heightAir tempDewpointWater temp
2014-Sep-30 09:16N 22°18' E 114°12'16 2.7
2014-Sep-30 03:15N 22°34' E 114°15'0 0.0
2014-Sep-30 02:28N 22°34' E 114°15'0 0.0
2014-Sep-30 01:33N 22°34' E 114°15'0 0.0
2014-Sep-30 00:33N 22°34' E 114°15'0 0.0
2014-Sep-29 23:33N 22°34' E 114°15'0 0.0
2014-Sep-29 22:33N 22°34' E 114°15'0 0.1
2014-Sep-29 21:32N 22°34' E 114°15'0 0.0
2014-Sep-29 20:33N 22°34' E 114°15'0 0.0
2014-Sep-29 19:33N 22°34' E 114°15'0 0.0
2014-Sep-29 18:33N 22°34' E 114°15'0 0.0
2014-Sep-29 17:33N 22°34' E 114°15'0 0.0
2014-Sep-29 16:28N 22°34' E 114°15'0 0.0
2014-Sep-29 15:30N 22°34' E 114°15'0 0.1
2014-Sep-29 14:33N 22°34' E 114°15'0 0.0
2014-Sep-29 13:33N 22°34' E 114°15'17 0.4
2014-Sep-27 22:06N 22°18' E 114°08'0 0.0
2014-Sep-27 21:20N 22°18' E 114°08'2 1.9
2014-Sep-27 20:22N 22°18' E 114°10'3 0.2
2014-Sep-27 01:09N 22°18' E 114°13'4 5.3
2014-Sep-27 00:26N 22°18' E 114°09'3 0.2
2014-Sep-26 08:21N 22°18' E 114°12'1 0.0
2014-Sep-25 14:31N 22°18' E 114°13'57 6.2
2014-Sep-25 05:18N 22°60' E 113°31'4 5.4
2014-Sep-25 04:33N 23°03' E 113°30'3 3.3
2014-Sep-25 03:33N 23°06' E 113°27'0 0.0
2014-Sep-25 02:33N 23°06' E 113°27'0 0.0
2014-Sep-25 01:33N 23°06' E 113°27'0 0.0
2014-Sep-25 00:32N 23°06' E 113°27'0 0.0
2014-Sep-24 23:33N 23°06' E 113°27'0 0.1
2014-Sep-24 22:33N 23°05' E 113°27'0 0.2
2014-Sep-24 21:33N 23°06' E 113°27'0 0.0
2014-Sep-24 20:33N 23°06' E 113°27'0 0.0
2014-Sep-24 19:33N 23°06' E 113°27'0 0.0
2014-Sep-24 18:33N 23°06' E 113°27'0 0.0
2014-Sep-24 17:33N 23°06' E 113°27'0 0.0
2014-Sep-24 16:33N 23°06' E 113°27'0 0.0
2014-Sep-24 15:33N 23°06' E 113°27'6 5.4
2014-Sep-24 14:29N 23°01' E 113°31'58 1.2
2014-Sep-22 15:34N 22°18' E 114°13'5 0.1
2014-Sep-21 03:03N 22°19' E 114°08'2 2.4
2014-Sep-21 02:12N 22°18' E 114°09'4 5.9
2014-Sep-21 01:33N 22°17' E 114°14'  

Dump ship's entire track history